createdAt,value
2018-10-17T00:03:19.405Z,15.2
2018-10-17T00:08:21.660Z,11.7
2018-10-17T00:13:23.973Z,15.9
2018-10-17T00:18:26.258Z,11.6
2018-10-17T00:23:28.732Z,11
2018-10-17T00:28:30.884Z,19.4
2018-10-17T00:33:33.134Z,14.8
2018-10-17T00:38:35.360Z,13.2
2018-10-17T00:43:38.828Z,18.9
2018-10-17T00:48:40.091Z,11.7
2018-10-17T00:53:42.373Z,18.5
2018-10-17T00:58:44.602Z,30.9
2018-10-17T01:03:46.922Z,28.799999
2018-10-17T01:08:49.232Z,19.700001
2018-10-17T01:13:51.577Z,35.200001
2018-10-17T01:18:53.934Z,24.6
2018-10-17T01:23:56.123Z,13.2
2018-10-17T01:28:58.420Z,25.299999
2018-10-17T01:34:00.825Z,48.099998
2018-10-17T01:39:02.994Z,24.1
2018-10-17T01:44:05.207Z,17.700001
2018-10-17T01:49:07.571Z,42.200001
2018-10-17T01:54:09.801Z,16.4
2018-10-17T01:59:12.237Z,22.299999
2018-10-17T02:04:14.398Z,30.1
2018-10-17T02:09:16.709Z,21.299999
2018-10-17T02:14:19.078Z,17.1
2018-10-17T02:19:21.348Z,24.6
2018-10-17T02:24:23.695Z,24.1
2018-10-17T02:29:25.920Z,27.299999
2018-10-17T02:34:28.241Z,24
2018-10-17T02:39:32.032Z,26.4
2018-10-17T02:44:33.038Z,23.700001
2018-10-17T02:49:35.095Z,21.299999
2018-10-17T02:54:37.387Z,25.4
2018-10-17T02:59:39.629Z,51.099998
2018-10-17T03:04:41.934Z,31.5
2018-10-17T03:09:44.275Z,22.4
2018-10-17T03:14:46.628Z,31.9
2018-10-17T03:19:48.832Z,23.1
2018-10-17T03:24:51.238Z,27.4
2018-10-17T03:29:53.467Z,22
2018-10-17T03:34:55.808Z,28.6
2018-10-17T03:39:58.099Z,26.200001
2018-10-17T03:45:00.252Z,29.1
2018-10-17T03:50:02.675Z,20.5
2018-10-17T03:55:05.003Z,39.099998
2018-10-17T04:00:07.175Z,27.200001
2018-10-17T04:05:09.639Z,22.700001
2018-10-17T04:10:11.789Z,39.599998
2018-10-17T04:15:14.091Z,44.900002
2018-10-17T04:20:16.324Z,53.799999
2018-10-17T04:25:18.864Z,35.599998
2018-10-17T04:30:20.921Z,41.299999
2018-10-17T04:35:23.264Z,30.5
2018-10-17T04:40:25.664Z,41.700001
2018-10-17T04:45:27.820Z,54.299999
2018-10-17T04:50:30.135Z,38.299999
2018-10-17T04:55:32.455Z,48.700001
2018-10-17T05:00:34.725Z,43.299999
2018-10-17T05:05:37.110Z,71.800003
2018-10-17T05:10:39.292Z,39.299999
2018-10-17T05:15:41.652Z,34.799999
2018-10-17T05:20:45.308Z,41
2018-10-17T05:25:46.239Z,36.299999
2018-10-17T05:30:48.616Z,60.200001
2018-10-17T05:35:50.751Z,46.599998
2018-10-17T05:40:53.251Z,46.400002
2018-10-17T05:45:56.824Z,50.799999
2018-10-17T05:50:57.677Z,56.400002
2018-10-17T05:55:59.965Z,47.200001
2018-10-17T06:01:02.289Z,52.400002
2018-10-17T06:06:04.663Z,46.200001
2018-10-17T06:11:06.877Z,41.299999
2018-10-17T06:16:10.327Z,46
2018-10-17T06:21:11.392Z,36
2018-10-17T06:26:13.800Z,49.799999
2018-10-17T06:31:16.133Z,36.799999
2018-10-17T06:36:18.290Z,47.400002
2018-10-17T06:41:20.614Z,34.299999
2018-10-17T06:46:22.964Z,56.799999
2018-10-17T06:51:25.243Z,46.700001
2018-10-17T06:56:27.567Z,58.299999
2018-10-17T07:01:29.973Z,40.099998
2018-10-17T07:06:32.098Z,41.400002
2018-10-17T07:11:34.515Z,56.200001
2018-10-17T07:16:36.689Z,48.5
2018-10-17T07:21:39.025Z,39.5
2018-10-17T07:26:41.330Z,33.900002
2018-10-17T07:31:43.606Z,46.299999
2018-10-17T07:36:45.914Z,54.5
2018-10-17T07:41:48.177Z,33.299999
2018-10-17T07:46:50.463Z,37
2018-10-17T07:51:52.744Z,37.700001
2018-10-17T07:56:55.079Z,50.400002
2018-10-17T08:01:57.380Z,62.5
2018-10-17T08:06:59.678Z,34.400002
2018-10-17T08:12:01.903Z,39.900002
2018-10-17T08:17:04.256Z,28.299999
2018-10-17T08:22:06.481Z,43.700001
2018-10-17T08:27:08.872Z,36.099998
2018-10-17T08:32:11.128Z,36.5
2018-10-17T08:37:13.755Z,39.900002
2018-10-17T08:42:15.690Z,30.1
2018-10-17T08:47:17.992Z,51.200001
2018-10-17T08:52:20.442Z,33.599998
2018-10-17T08:57:22.650Z,21.1
2018-10-17T09:02:24.832Z,17.4
2018-10-17T09:07:27.225Z,20.700001
2018-10-17T09:17:31.813Z,25.9
2018-10-17T09:22:34.193Z,23.700001
2018-10-17T09:27:36.314Z,15.7
2018-10-17T09:32:38.660Z,20.799999
2018-10-17T09:37:40.890Z,25.9
2018-10-17T09:42:43.425Z,18.5
2018-10-17T09:47:45.494Z,32.200001
2018-10-17T09:52:47.823Z,26.799999
2018-10-17T09:57:50.151Z,20
2018-10-17T10:02:52.355Z,21.4
2018-10-17T10:07:54.657Z,17.9
2018-10-17T10:12:57.119Z,18.200001
2018-10-17T10:17:59.293Z,12.2
2018-10-17T10:23:01.632Z,19.799999
2018-10-17T10:28:04.140Z,17
2018-10-17T10:33:06.249Z,22.200001
2018-10-17T10:38:08.471Z,12.4
2018-10-17T10:43:10.788Z,12.7
2018-10-17T10:48:13.331Z,23.299999
2018-10-17T10:53:15.454Z,15.3
2018-10-17T10:58:17.773Z,31.700001
2018-10-17T11:03:19.958Z,9.6
2018-10-17T11:08:22.153Z,13.9
2018-10-17T11:13:24.537Z,11.7
2018-10-17T11:18:26.871Z,23.6
2018-10-17T11:23:29.094Z,9.8
2018-10-17T11:28:31.457Z,17.200001
2018-10-17T11:33:33.769Z,15.6
2018-10-17T11:38:36.006Z,5
2018-10-17T11:43:38.275Z,9.9
2018-10-17T11:48:40.753Z,21
2018-10-17T11:53:42.812Z,7.7
2018-10-17T11:58:45.223Z,46.299999
2018-10-17T12:03:47.862Z,10.4
2018-10-17T12:08:49.797Z,7.3
2018-10-17T12:13:52.160Z,8.4
2018-10-17T12:18:56.201Z,8.7
2018-10-17T12:23:56.793Z,8.2
2018-10-17T12:28:59.155Z,8.9
2018-10-17T12:34:01.223Z,5.2
2018-10-17T12:39:03.521Z,6.1
2018-10-17T12:44:05.978Z,6.9
2018-10-17T12:49:08.116Z,5.9
2018-10-17T12:54:10.375Z,6.1
2018-10-17T12:59:12.837Z,4.2
2018-10-17T13:04:14.941Z,4.6
2018-10-17T13:09:17.279Z,9
2018-10-17T13:14:19.537Z,7.1
2018-10-17T13:24:24.202Z,6.3
2018-10-17T13:29:26.438Z,9
2018-10-17T13:34:28.816Z,7.1
2018-10-17T13:44:33.513Z,7.2
2018-10-17T13:49:35.817Z,12.6
2018-10-17T13:54:38.085Z,12.1
2018-10-17T13:59:40.346Z,10.7
2018-10-17T14:04:42.571Z,26.700001
2018-10-17T14:09:44.827Z,9.8
2018-10-17T14:14:47.108Z,9
2018-10-17T14:19:49.376Z,10.9
2018-10-17T14:24:51.743Z,7.7
2018-10-17T14:29:53.980Z,12.5
2018-10-17T14:34:56.339Z,6.9
2018-10-17T14:39:58.882Z,5.4
2018-10-17T14:45:00.985Z,7.2
2018-10-17T14:50:03.194Z,5.8
2018-10-17T14:55:05.506Z,10.5
2018-10-17T15:00:07.826Z,20.1
2018-10-17T15:05:10.128Z,4.7
2018-10-17T15:10:12.351Z,9.2
2018-10-17T15:15:14.856Z,9.4
2018-10-17T15:20:16.945Z,9.8
2018-10-17T15:25:19.195Z,12.2
2018-10-17T15:30:21.521Z,9.3
2018-10-17T15:35:23.935Z,11.1
2018-10-17T15:40:26.105Z,7.6
2018-10-17T15:45:28.462Z,16.200001
2018-10-17T15:50:30.772Z,5.2
2018-10-17T15:55:33.067Z,18.700001
2018-10-17T16:00:35.385Z,7.2
2018-10-17T16:05:37.664Z,12.6
2018-10-17T16:10:39.851Z,25.200001
2018-10-17T16:15:42.222Z,24.6
2018-10-17T16:20:44.519Z,30.299999
2018-10-17T16:25:46.752Z,4
2018-10-17T16:30:49.194Z,3.8
2018-10-17T16:35:51.486Z,7
2018-10-17T16:40:53.634Z,6
2018-10-17T16:45:55.936Z,16.299999
2018-10-17T16:50:58.391Z,3
2018-10-17T16:56:00.687Z,13.7
2018-10-17T17:01:03.104Z,10
2018-10-17T17:06:05.236Z,5.5
2018-10-17T17:11:07.395Z,6.5
2018-10-17T17:16:09.850Z,13.3
2018-10-17T17:21:12.106Z,5.5
2018-10-17T17:26:14.290Z,8.2
2018-10-17T17:31:16.580Z,7.9
2018-10-17T17:36:19.004Z,9.1
2018-10-17T17:41:21.277Z,16.299999
2018-10-17T17:46:23.513Z,3.7
2018-10-17T17:51:25.771Z,22.799999
2018-10-17T17:56:28.110Z,16.700001
2018-10-17T18:01:30.376Z,7.3
2018-10-17T18:06:32.854Z,7.6
2018-10-17T18:11:34.975Z,5.6
2018-10-17T18:16:37.305Z,7.4
2018-10-17T18:21:39.611Z,6.3
2018-10-17T18:26:41.792Z,6.4
2018-10-17T18:31:44.103Z,3.5
2018-10-17T18:36:46.504Z,3
2018-10-17T18:41:48.692Z,3.1
2018-10-17T18:46:51.039Z,4.2
2018-10-17T18:51:53.319Z,5
2018-10-17T18:56:55.662Z,23.9
2018-10-17T19:01:57.913Z,4.6
2018-10-17T19:07:02.008Z,3.5
2018-10-17T19:12:02.624Z,3.3
2018-10-17T19:17:05.249Z,3.1
2018-10-17T19:22:07.114Z,7.1
2018-10-17T19:27:09.383Z,3.2
2018-10-17T19:32:11.786Z,4.9
2018-10-17T19:37:14.020Z,4.3
2018-10-17T19:42:16.275Z,3.8
2018-10-17T19:47:18.612Z,8.4
2018-10-17T19:52:20.948Z,15.8
2018-10-17T19:57:23.135Z,6.8
2018-10-17T20:02:25.562Z,1.8
2018-10-17T20:07:27.813Z,2.5
2018-10-17T20:12:30.001Z,3.5
2018-10-17T20:17:32.497Z,4.2
2018-10-17T20:22:34.660Z,4.3
2018-10-17T20:27:36.949Z,3.6
2018-10-17T20:32:40.549Z,3.3
2018-10-17T20:37:41.488Z,10.9
2018-10-17T20:42:43.753Z,4.6
2018-10-17T20:47:46.137Z,5.2
2018-10-17T20:52:48.306Z,3.8
2018-10-17T20:57:50.701Z,2.3
2018-10-17T21:02:53.036Z,4
2018-10-17T21:07:55.231Z,3
2018-10-17T21:12:57.590Z,4.3
2018-10-17T21:17:59.904Z,4.9
2018-10-17T21:23:02.151Z,2.4
2018-10-17T21:28:04.403Z,3.8
2018-10-17T21:33:06.823Z,4.9
2018-10-17T21:38:09.003Z,1.7
2018-10-17T21:43:11.385Z,3.8
2018-10-17T21:48:13.679Z,2.4
2018-10-17T21:53:15.876Z,7.4
2018-10-17T21:58:18.139Z,10.1
2018-10-17T22:03:20.574Z,3.3
2018-10-17T22:08:22.914Z,8
2018-10-17T22:13:25.049Z,4.1
2018-10-17T22:18:27.380Z,3.8
2018-10-17T22:23:29.775Z,18.1
2018-10-17T22:28:32.001Z,5
2018-10-17T22:33:34.253Z,3.5
2018-10-17T22:38:36.557Z,17.4
2018-10-17T22:43:38.849Z,5.4
2018-10-17T22:48:41.181Z,4.3
2018-10-17T22:53:43.433Z,4.5
2018-10-17T22:58:45.691Z,5.5
2018-10-17T23:03:48.122Z,7.9
2018-10-17T23:08:50.347Z,8.6
2018-10-17T23:13:52.620Z,4.5
2018-10-17T23:18:54.894Z,7
2018-10-17T23:23:57.269Z,22.5
2018-10-17T23:28:59.594Z,5.9
2018-10-17T23:34:01.789Z,6
2018-10-17T23:39:04.018Z,11.1
2018-10-17T23:44:07.947Z,4.1
2018-10-17T23:49:08.656Z,7.8
2018-10-17T23:54:11.151Z,6.8
2018-10-17T23:59:14.397Z,7
